Texarkana, Texas
Current Conditions -  °F | °C
As of 7:53 PM on Monday 22 Dec 2014 (Local Time) from KTXK Reporting Station
Clear Clear  
Wind Chill: 13°   Ceiling: Unl
Heat Index: 13°   Visibility: 7mi
Dew Point: 12°   Wind: 0mph
Humidity: 93%   Direction: NA
Pressure: 29.62"   Gusts: NA
Location:  33.43°N, 94.05°W
Report Text: KTXK 230153Z 00000KT 7SM CLR 13/12 A2962 RMK AO2 SLP027 T01330122
Loading
Personal Weather Stations






























Interactive Weather Map New forecast layout! Learn more

10-Day Weather Forecast

Advertisements
Track Severe Weather on mobile